Time;durP1;ratioP1;P1;durP2;ratioP2;P2;SDS_P1;SDS_P2;PMS_P1;PMS_P2;Temp;Humidity;BMP_temperature;BMP_pressure;BME280_temperature;BME280_humidity;BME280_pressure;Samples;Min_cycle;Max_cycle;Signal;HPM_P1;HPM_P2
2022/12/02 00:00:49;;;;;;;9.18;6.05;;;;;;;2.30;76.73;94939.78;4151370;28;20101;-52
2022/12/02 00:02:51;;;;;;;9.93;5.60;;;;;;;2.22;77.53;94942.91;4161673;28;20080;-53
2022/12/02 00:04:57;;;;;;;9.23;6.32;;;;;;;2.17;78.02;94951.88;4149630;28;20112;-55
2022/12/02 00:06:59;;;;;;;7.75;4.82;;;;;;;2.16;78.72;94945.88;4157609;28;20343;-49
2022/12/02 00:09:15;;;;;;;11.77;6.43;;;;;;;2.33;78.63;94941.34;4153646;28;20077;-52
2022/12/02 00:11:26;;;;;;;7.97;5.65;;;;;;;2.53;78.28;94934.81;4150921;28;20422;-52
2022/12/02 00:13:40;;;;;;;8.80;5.10;;;;;;;2.73;77.46;94934.31;4149604;28;20432;-52
2022/12/02 00:15:44;;;;;;;8.90;5.78;;;;;;;2.88;77.20;94934.97;4149398;28;20218;-54
2022/12/02 00:17:46;;;;;;;8.20;5.10;;;;;;;2.97;76.86;94941.28;4153327;28;20112;-54
2022/12/02 00:19:48;;;;;;;8.40;5.05;;;;;;;3.09;76.27;94940.44;4161840;28;20045;-56
2022/12/02 00:21:50;;;;;;;7.65;4.88;;;;;;;3.12;75.80;94935.06;4153618;28;20402;-55
2022/12/02 00:23:52;;;;;;;6.88;5.13;;;;;;;3.11;75.71;94951.50;4153143;28;20057;-51
2022/12/02 00:25:54;;;;;;;6.05;4.30;;;;;;;3.03;75.93;94940.84;4154008;28;20049;-53
2022/12/02 00:27:56;;;;;;;7.43;4.70;;;;;;;3.06;76.52;94938.06;4165316;28;20057;-53
2022/12/02 00:29:58;;;;;;;6.60;4.78;;;;;;;3.06;76.25;94941.47;4160979;28;20096;-53
2022/12/02 00:31:59;;;;;;;7.72;5.22;;;;;;;3.10;76.32;94941.25;4160773;28;20082;-52
2022/12/02 00:34:01;;;;;;;5.55;4.13;;;;;;;3.09;75.86;94935.25;4161332;28;20087;-51
2022/12/02 00:36:04;;;;;;;6.03;4.25;;;;;;;3.12;75.97;94936.78;4153406;28;20674;-51
2022/12/02 00:38:14;;;;;;;6.35;4.03;;;;;;;3.16;75.85;94936.50;4153689;28;20462;-51
2022/12/02 00:40:16;;;;;;;6.60;3.95;;;;;;;3.18;75.84;94933.78;4144885;28;20584;-53
2022/12/02 00:42:18;;;;;;;6.45;4.47;;;;;;;3.25;75.76;94933.25;4145165;28;20069;-50
2022/12/02 00:46:40;;;;;;;6.78;4.63;;;;;;;3.29;75.35;94931.25;4150782;28;20104;-51
2022/12/02 00:48:41;;;;;;;7.22;4.60;;;;;;;3.36;75.33;94931.66;4145010;28;20176;-53
2022/12/02 00:50:43;;;;;;;6.97;4.88;;;;;;;3.40;74.93;94931.31;4144419;28;20505;-52
2022/12/02 00:52:44;;;;;;;6.70;4.35;;;;;;;3.44;75.16;94929.31;4144747;28;20049;-50
2022/12/02 00:54:46;;;;;;;8.32;5.07;;;;;;;3.41;75.27;94929.56;4154491;28;20057;-51
2022/12/02 00:56:48;;;;;;;6.53;4.15;;;;;;;3.39;75.25;94928.84;4160706;28;20061;-51
2022/12/02 00:58:50;;;;;;;5.80;4.13;;;;;;;3.32;75.47;94931.03;4160414;28;20144;-50
2022/12/02 01:00:51;;;;;;;6.50;4.32;;;;;;;3.27;75.45;94927.97;4160943;28;20093;-50
2022/12/02 01:02:53;;;;;;;6.72;4.93;;;;;;;3.30;75.48;94939.84;4161157;28;20137;-54
2022/12/02 01:04:55;;;;;;;6.50;4.68;;;;;;;3.32;75.72;94925.88;4154949;28;20045;-53
2022/12/02 01:06:56;;;;;;;6.25;4.20;;;;;;;3.27;75.37;94927.97;4145112;28;20153;-46
2022/12/02 01:08:58;;;;;;;5.80;4.45;;;;;;;3.26;75.83;94919.34;4157595;28;20514;-52
2022/12/02 01:11:00;;;;;;;7.57;4.90;;;;;;;3.23;75.94;94917.00;4160254;28;20157;-49
2022/12/02 01:13:02;;;;;;;8.43;4.72;;;;;;;3.28;76.15;94914.88;4160147;28;20061;-52
2022/12/02 01:15:04;;;;;;;6.43;4.90;;;;;;;3.34;76.66;94918.00;4160728;28;20419;-54
2022/12/02 01:17:05;;;;;;;8.65;4.55;;;;;;;3.40;76.01;94913.19;4160019;28;20059;-51
2022/12/02 01:19:14;;;;;;;7.07;4.55;;;;;;;3.46;75.80;94923.13;4160335;28;20496;-49
2022/12/02 01:21:17;;;;;;;5.25;3.90;;;;;;;3.48;75.53;94920.41;4160985;28;20045;-49
2022/12/02 01:23:18;;;;;;;6.40;3.97;;;;;;;3.51;75.34;94916.75;4160595;28;20077;-54
2022/12/02 01:25:20;;;;;;;4.65;3.90;;;;;;;3.49;74.99;94922.88;4161301;28;20053;-53
2022/12/02 01:27:23;;;;;;;6.75;3.95;;;;;;;3.40;75.34;94920.97;4165587;28;20503;-50
2022/12/02 01:29:24;;;;;;;5.53;3.72;;;;;;;3.39;75.80;94923.66;4160905;28;20346;-53
2022/12/02 01:31:26;;;;;;;6.70;3.95;;;;;;;3.36;75.81;94923.88;4165741;28;20109;-54
2022/12/02 01:33:40;;;;;;;6.85;3.80;;;;;;;3.41;75.91;94921.78;4165844;28;20111;-50
2022/12/02 01:35:42;;;;;;;5.72;4.20;;;;;;;3.35;75.37;94917.84;4155164;28;20052;-49
2022/12/02 01:37:44;;;;;;;7.57;4.63;;;;;;;3.29;75.90;94915.69;4166444;28;20338;-51
2022/12/02 01:39:45;;;;;;;8.35;5.60;;;;;;;3.20;76.00;94924.13;4165680;28;20080;-50
2022/12/02 01:41:47;;;;;;;6.90;4.70;;;;;;;2.84;77.17;94921.44;4152250;28;20068;-50
2022/12/02 01:43:49;;;;;;;6.25;4.60;;;;;;;2.77;78.05;94925.38;4164214;28;20049;-50
2022/12/02 01:45:51;;;;;;;6.32;4.80;;;;;;;2.78;78.38;94916.69;4160020;28;20049;-53
2022/12/02 01:47:53;;;;;;;7.60;5.43;;;;;;;2.75;78.54;94916.06;4150743;28;20474;-52
2022/12/02 01:49:55;;;;;;;8.07;5.93;;;;;;;2.83;78.40;94927.53;4148455;28;20046;-55
2022/12/02 01:51:57;;;;;;;7.88;5.43;;;;;;;2.96;78.11;94919.75;4164459;28;20042;-54
2022/12/02 01:53:58;;;;;;;9.38;5.78;;;;;;;3.05;77.55;94923.44;4165535;28;20057;-51
2022/12/02 01:56:00;;;;;;;8.27;6.15;;;;;;;3.11;77.37;94928.19;4163827;28;20461;-50
2022/12/02 01:58:02;;;;;;;11.10;7.20;;;;;;;3.19;76.76;94925.91;4168149;28;20101;-52
2022/12/02 02:00:05;;;;;;;9.10;6.13;;;;;;;3.25;76.46;94924.66;4164256;28;20049;-53
2022/12/02 02:02:30;;;;;;;10.00;6.70;;;;;;;3.32;76.18;94931.03;4170922;28;20463;-53
2022/12/02 02:04:44;;;;;;;10.57;6.53;;;;;;;3.33;75.80;94927.50;4153959;28;20282;-52
2022/12/02 02:06:47;;;;;;;7.80;5.78;;;;;;;3.33;75.98;94932.69;4164746;28;20107;-50
2022/12/02 02:08:48;;;;;;;8.32;5.82;;;;;;;3.38;75.82;94932.38;4165157;28;20224;-49
2022/12/02 02:10:56;;;;;;;7.30;5.82;;;;;;;3.40;75.55;94927.88;4152707;28;20049;-49
2022/12/02 02:12:58;;;;;;;7.68;5.70;;;;;;;3.43;75.95;94931.09;4165042;28;20128;-51
2022/12/02 02:15:02;;;;;;;7.05;4.30;;;;;;;3.46;75.13;94935.22;4163754;28;20073;-52
2022/12/02 02:17:04;;;;;;;6.35;4.57;;;;;;;3.47;75.27;94926.53;4164848;28;20417;-52
2022/12/02 02:19:14;;;;;;;6.55;4.50;;;;;;;3.41;74.64;94924.38;4165475;28;20057;-54
2022/12/02 02:21:19;;;;;;;6.50;4.50;;;;;;;3.42;74.97;94926.00;4163648;28;20053;-52
2022/12/02 02:23:25;;;;;;;6.10;4.55;;;;;;;3.28;74.85;94929.59;4163412;28;20072;-52
2022/12/02 02:25:27;;;;;;;5.97;4.38;;;;;;;3.23;75.27;94932.53;4165474;28;20045;-52
2022/12/02 02:27:28;;;;;;;8.35;6.22;;;;;;;3.12;75.16;94937.63;4163746;28;20081;-51
2022/12/02 02:29:30;;;;;;;8.80;5.60;;;;;;;3.12;76.09;94940.22;4164854;28;20593;-53
2022/12/02 02:31:44;;;;;;;8.35;6.35;;;;;;;3.11;76.23;94933.38;4164852;28;20045;-52
2022/12/02 02:33:48;;;;;;;10.65;7.25;;;;;;;3.08;76.38;94939.59;4165015;28;20151;-51
2022/12/02 02:35:50;;;;;;;9.30;6.72;;;;;;;3.12;76.21;94936.78;4164810;28;20056;-49
2022/12/02 02:37:53;;;;;;;8.27;6.75;;;;;;;3.14;75.96;94947.88;4155963;28;20073;-52
2022/12/02 02:39:55;;;;;;;9.70;6.95;;;;;;;2.97;76.40;94952.47;4159712;28;20204;-54
2022/12/02 02:41:56;;;;;;;10.85;7.07;;;;;;;2.62;77.30;94947.13;4159201;28;20042;-52
2022/12/02 02:43:58;;;;;;;9.00;6.55;;;;;;;2.11;79.38;94944.53;4159205;28;20088;-54
2022/12/02 02:46:00;;;;;;;10.77;7.35;;;;;;;1.97;80.23;94956.59;4162500;28;20417;-55
2022/12/02 02:48:03;;;;;;;9.38;6.32;;;;;;;2.00;80.54;94950.41;4158457;28;20061;-56
2022/12/02 02:50:06;;;;;;;10.07;7.18;;;;;;;2.18;80.64;94954.38;4161491;28;20061;-51
2022/12/02 02:52:08;;;;;;;9.63;7.07;;;;;;;2.38;80.28;94957.38;4159490;28;20526;-53
2022/12/02 02:54:09;;;;;;;9.63;6.25;;;;;;;2.49;79.41;94954.06;4160918;28;20453;-51
2022/12/02 02:56:11;;;;;;;8.10;5.85;;;;;;;2.60;79.14;94949.84;4160645;28;20560;-52
2022/12/02 02:58:13;;;;;;;7.50;5.60;;;;;;;2.62;78.91;94957.47;4159236;28;20077;-51
2022/12/02 03:00:17;;;;;;;7.90;5.88;;;;;;;2.62;78.54;94950.56;4162564;28;20138;-52
2022/12/02 03:02:19;;;;;;;7.07;5.60;;;;;;;2.39;78.84;94956.47;4158267;28;20056;-55
2022/12/02 03:04:22;;;;;;;7.10;5.75;;;;;;;2.12;80.09;94953.94;4158113;28;20139;-49
2022/12/02 03:06:26;;;;;;;8.35;5.45;;;;;;;1.98;80.79;94957.41;4158417;28;20516;-51
2022/12/02 03:08:27;;;;;;;;;;;;;;;1.91;81.78;94956.19;4169425;28;20053;-50
2022/12/02 03:10:29;;;;;;;8.52;6.57;;;;;;;1.81;81.57;94955.97;4158145;28;19933;-52
2022/12/02 03:12:31;;;;;;;8.98;7.00;;;;;;;1.77;82.07;94955.31;4158945;28;20151;-52
2022/12/02 03:14:33;;;;;;;9.30;6.95;;;;;;;1.76;82.40;94961.41;4157512;28;20144;-52
2022/12/02 03:16:35;;;;;;;11.27;8.02;;;;;;;1.83;82.19;94957.50;4158639;28;20123;-50
2022/12/02 03:18:38;;;;;;;11.23;8.48;;;;;;;1.96;82.12;94960.13;4158881;28;20088;-49
2022/12/02 03:20:40;;;;;;;11.38;8.88;;;;;;;1.96;81.41;94954.97;4160403;28;20045;-52
2022/12/02 03:22:42;;;;;;;13.95;8.98;;;;;;;1.96;81.93;94961.91;4158837;28;20046;-53
2022/12/02 03:24:44;;;;;;;13.32;8.68;;;;;;;2.12;82.13;94959.94;4158990;28;20057;-53
2022/12/02 03:26:46;;;;;;;14.68;9.32;;;;;;;2.21;81.60;94969.66;4158113;28;20122;-53
2022/12/02 03:28:48;;;;;;;13.80;9.85;;;;;;;2.15;81.11;94959.75;4159300;28;20125;-54
2022/12/02 03:30:50;;;;;;;15.45;11.00;;;;;;;2.14;80.90;94967.59;4159633;28;20115;-54
2022/12/02 03:32:52;;;;;;;17.73;12.65;;;;;;;2.05;81.03;94971.63;4158806;28;20049;-53
2022/12/02 03:34:54;;;;;;;17.20;10.48;;;;;;;1.77;81.60;94975.16;4160567;28;20049;-52
2022/12/02 03:36:57;;;;;;;16.13;10.50;;;;;;;1.67;82.26;94969.75;4161285;28;20081;-52
2022/12/02 03:38:58;;;;;;;14.05;10.02;;;;;;;1.76;82.32;94971.72;4154053;28;20488;-50
2022/12/02 03:41:02;;;;;;;17.33;9.98;;;;;;;1.90;82.30;94975.22;4161819;28;20065;-51
2022/12/02 03:43:03;;;;;;;14.18;10.00;;;;;;;1.99;81.86;94972.00;4146955;28;20137;-51
2022/12/02 03:45:06;;;;;;;16.13;11.35;;;;;;;2.12;81.09;94967.69;4156326;28;20050;-49
2022/12/02 03:47:07;;;;;;;16.35;11.20;;;;;;;2.20;80.82;94970.59;4145103;28;20054;-55
2022/12/02 03:49:10;;;;;;;19.13;12.70;;;;;;;2.28;80.80;94975.28;4154916;28;20081;-50
2022/12/02 03:51:12;;;;;;;18.70;10.88;;;;;;;2.36;80.23;94972.16;4161689;28;20057;-53
2022/12/02 03:53:14;;;;;;;20.45;12.00;;;;;;;2.26;80.19;94974.53;4163502;28;20446;-53
2022/12/02 03:55:16;;;;;;;18.13;12.13;;;;;;;2.28;80.29;94977.84;4144067;28;20093;-53
2022/12/02 03:57:18;;;;;;;18.70;11.98;;;;;;;2.29;80.42;94982.09;4143876;28;20831;-51
2022/12/02 03:59:27;;;;;;;20.25;11.82;;;;;;;2.21;80.00;94981.75;4144686;28;20066;-49
2022/12/02 04:01:29;;;;;;;19.10;11.35;;;;;;;2.19;80.34;94971.50;4143506;28;20080;-50
2022/12/02 04:03:31;;;;;;;20.38;11.15;;;;;;;2.10;80.00;94984.22;4145075;28;20150;-50
2022/12/02 04:05:33;;;;;;;26.63;13.75;;;;;;;1.92;81.22;94983.69;4146051;28;20073;-54
2022/12/02 04:07:34;;;;;;;17.85;11.50;;;;;;;2.09;81.45;94990.31;4145918;28;20469;-54
2022/12/02 04:09:36;;;;;;;21.23;11.90;;;;;;;2.09;81.34;94988.56;4145205;28;20108;-55
2022/12/02 04:11:38;;;;;;;23.38;13.88;;;;;;;2.18;81.57;94993.13;4146574;28;20061;-54
2022/12/02 04:13:40;;;;;;;26.30;14.38;;;;;;;2.36;80.93;94992.84;4144365;28;20173;-51
2022/12/02 04:15:41;;;;;;;17.08;10.77;;;;;;;2.37;80.51;94992.75;4160670;28;20053;-54
2022/12/02 04:17:43;;;;;;;18.83;10.85;;;;;;;2.46;80.67;94983.56;4155014;28;20046;-53
2022/12/02 04:19:45;;;;;;;13.23;9.25;;;;;;;2.55;80.37;94982.91;4145685;28;20053;-52
2022/12/02 04:21:46;;;;;;;17.58;9.98;;;;;;;2.60;79.84;94986.03;4145594;28;20053;-50
2022/12/02 04:23:48;;;;;;;19.63;10.75;;;;;;;2.53;79.72;94989.97;4145455;28;20042;-52
2022/12/02 04:25:49;;;;;;;19.25;10.80;;;;;;;2.57;80.03;94988.00;4145472;28;20060;-52
2022/12/02 04:27:51;;;;;;;16.27;10.30;;;;;;;2.64;79.92;94987.47;4144351;28;20050;-54
2022/12/02 04:29:53;;;;;;;18.35;10.93;;;;;;;2.63;79.54;94992.75;4145705;28;20112;-53
2022/12/02 04:31:55;;;;;;;14.27;9.75;;;;;;;2.65;80.00;94994.31;4144707;28;20042;-55
2022/12/02 04:33:56;;;;;;;18.10;10.27;;;;;;;2.76;80.44;94996.16;4149358;28;20637;-52
2022/12/02 04:35:58;;;;;;;19.15;11.05;;;;;;;2.89;79.67;94987.56;4158962;28;20050;-53
2022/12/02 04:38:00;;;;;;;20.05;11.63;;;;;;;3.01;79.43;94992.75;4160041;28;20080;-51
2022/12/02 04:40:02;;;;;;;19.63;10.20;;;;;;;3.15;78.86;94990.94;4161555;28;20453;-53
2022/12/02 04:42:04;;;;;;;18.17;9.95;;;;;;;3.26;78.22;94984.06;4170996;28;20480;-51
2022/12/02 04:44:06;;;;;;;14.40;10.05;;;;;;;3.32;77.56;94990.59;4157797;28;20564;-52
2022/12/02 04:46:07;;;;;;;21.75;10.68;;;;;;;3.41;77.11;94991.72;4160298;28;20138;-52
2022/12/02 04:48:09;;;;;;;19.45;11.02;;;;;;;3.44;77.19;94981.97;4160066;28;20057;-51
2022/12/02 04:50:11;;;;;;;17.60;10.65;;;;;;;3.40;76.73;94982.28;4160870;28;20064;-51
2022/12/02 04:52:13;;;;;;;19.58;11.68;;;;;;;3.42;76.85;94990.75;4160525;28;20061;-54
2022/12/02 04:54:15;;;;;;;17.73;10.80;;;;;;;3.50;76.98;94996.22;4160332;28;20046;-50
2022/12/02 04:56:16;;;;;;;18.05;10.45;;;;;;;3.53;77.32;94996.03;4159597;28;20140;-53
2022/12/02 04:58:18;;;;;;;20.48;11.02;;;;;;;3.60;76.96;94991.22;4159359;28;20056;-52
2022/12/02 05:00:20;;;;;;;20.70;12.10;;;;;;;3.70;76.33;94994.84;4159470;28;20064;-51
2022/12/02 05:02:21;;;;;;;19.35;12.25;;;;;;;3.75;76.48;94990.13;4172188;28;20150;-51
2022/12/02 05:04:23;;;;;;;22.95;11.50;;;;;;;3.77;76.10;95001.22;4159832;28;20058;-56
2022/12/02 05:06:25;;;;;;;22.65;11.68;;;;;;;3.81;75.92;94994.88;4166924;28;20506;-52
2022/12/02 05:08:26;;;;;;;22.50;11.80;;;;;;;3.84;75.47;95004.19;4167004;28;20062;-55
2022/12/02 05:10:28;;;;;;;24.70;12.63;;;;;;;3.85;76.67;94993.72;4158611;28;20065;-53
2022/12/02 05:12:30;;;;;;;23.38;12.10;;;;;;;3.86;76.16;94997.13;4159248;28;20088;-56
2022/12/02 05:14:31;;;;;;;23.60;12.25;;;;;;;3.91;75.52;95000.22;4159753;28;20056;-56
2022/12/02 05:16:33;;;;;;;19.20;11.15;;;;;;;3.94;75.73;94999.19;4158706;28;20049;-54
2022/12/02 05:18:35;;;;;;;20.80;11.25;;;;;;;3.95;75.62;95006.81;4159872;28;20053;-55
2022/12/02 05:20:36;;;;;;;18.45;10.95;;;;;;;3.96;76.17;94998.13;4159030;28;20050;-51
2022/12/02 05:22:39;;;;;;;18.63;10.60;;;;;;;3.96;76.13;94998.13;4166378;28;20041;-50
2022/12/02 05:24:40;;;;;;;17.55;10.02;;;;;;;3.99;76.09;95004.84;4164620;28;20060;-53
2022/12/02 05:26:42;;;;;;;15.82;10.05;;;;;;;4.03;76.21;95004.50;4157820;28;20081;-52
2022/12/02 05:28:44;;;;;;;16.65;10.82;;;;;;;4.05;75.33;95010.41;4158024;28;20613;-54
2022/12/02 05:30:45;;;;;;;18.30;10.50;;;;;;;4.05;75.55;95007.00;4158572;28;20140;-51
2022/12/02 05:32:47;;;;;;;15.02;10.00;;;;;;;4.06;75.99;95014.66;4156846;28;20127;-54
2022/12/02 05:34:49;;;;;;;21.00;10.98;;;;;;;4.01;75.89;95011.56;4160228;28;20593;-54
2022/12/02 05:36:51;;;;;;;15.38;9.90;;;;;;;4.04;75.64;95010.50;4159633;28;20633;-53
2022/12/02 05:38:53;;;;;;;15.20;9.98;;;;;;;4.06;76.10;95008.63;4156277;28;20128;-50
2022/12/02 05:40:55;;;;;;;16.73;9.93;;;;;;;4.08;75.89;95012.78;4152199;28;20462;-53
2022/12/02 05:42:59;;;;;;;17.10;9.73;;;;;;;4.05;75.92;95017.38;4143226;28;20050;-53
2022/12/02 05:45:01;;;;;;;;;;;;;;;4.04;76.19;95016.56;4142571;28;20123;-55
2022/12/02 05:47:10;;;;;;;17.73;9.75;;;;;;;4.01;76.04;95021.94;4142216;28;19949;-53
2022/12/02 05:49:22;;;;;;;15.50;9.55;;;;;;;3.99;75.50;95021.22;4154369;28;20077;-53
2022/12/02 05:51:25;;;;;;;14.77;9.55;;;;;;;4.01;76.23;95018.53;4145402;28;20455;-57
2022/12/02 05:53:27;;;;;;;15.88;9.20;;;;;;;4.00;76.14;95015.13;4143984;28;20133;-50
2022/12/02 05:55:29;;;;;;;15.23;9.00;;;;;;;4.07;76.03;95024.09;4144036;28;20144;-53
2022/12/02 05:57:31;;;;;;;16.15;10.27;;;;;;;4.13;76.21;95024.56;4143667;28;20501;-52
2022/12/02 05:59:32;;;;;;;12.43;8.32;;;;;;;4.07;75.58;95028.47;4156611;28;20167;-51
2022/12/02 06:01:36;;;;;;;14.98;9.35;;;;;;;4.06;75.32;95027.59;4148620;28;20137;-52
2022/12/02 06:03:38;;;;;;;16.73;10.02;;;;;;;4.04;76.17;95026.06;4150597;28;20196;-49
2022/12/02 06:05:41;;;;;;;13.82;8.90;;;;;;;4.08;75.56;95030.91;4144220;28;20131;-51
2022/12/02 06:07:44;;;;;;;17.33;10.63;;;;;;;4.05;75.99;95036.34;4144171;28;20085;-51
2022/12/02 06:09:46;;;;;;;17.95;11.50;;;;;;;4.10;75.71;95041.19;4143864;28;20056;-52
2022/12/02 06:11:48;;;;;;;19.58;11.25;;;;;;;4.13;75.49;95034.94;4144012;28;20108;-53
2022/12/02 06:13:49;;;;;;;17.52;10.80;;;;;;;4.17;75.84;95046.75;4146294;28;20049;-53
2022/12/02 06:15:52;;;;;;;18.73;10.57;;;;;;;4.17;75.95;95044.16;4146873;28;20085;-53
2022/12/02 06:17:54;;;;;;;18.77;11.20;;;;;;;4.22;75.33;95052.44;4154575;28;20546;-53
2022/12/02 06:19:56;;;;;;;20.27;11.00;;;;;;;4.30;76.30;95053.53;4151825;28;20341;-55
2022/12/02 06:21:59;;;;;;;19.48;10.45;;;;;;;4.34;74.95;95054.13;4147078;28;20124;-52
2022/12/02 06:24:00;;;;;;;19.55;9.63;;;;;;;4.37;75.17;95064.28;4146975;28;20050;-54
2022/12/02 06:26:02;;;;;;;18.33;10.18;;;;;;;4.33;75.21;95057.66;4155098;28;20049;-50
2022/12/02 06:28:35;;;;;;;17.38;10.60;;;;;;;4.35;74.36;95053.19;4150580;28;20454;-52
2022/12/02 06:30:38;;;;;;;15.32;10.32;;;;;;;4.40;74.29;95052.84;4151161;28;20056;-54
2022/12/02 06:32:43;;;;;;;17.50;10.52;;;;;;;4.46;74.09;95052.41;4144616;28;20049;-54
2022/12/02 06:34:45;;;;;;;20.10;11.70;;;;;;;4.41;73.96;95057.09;4156881;28;20068;-55
2022/12/02 06:36:47;;;;;;;23.58;13.88;;;;;;;4.33;74.07;95051.66;4162824;28;20053;-55
2022/12/02 06:38:49;;;;;;;21.08;13.68;;;;;;;4.15;74.67;95051.22;4154150;28;20396;-52
2022/12/02 06:40:50;;;;;;;27.50;16.08;;;;;;;4.19;75.34;95050.06;4159808;28;20116;-51
2022/12/02 06:42:52;;;;;;;26.45;17.10;;;;;;;3.90;75.71;95055.59;4161580;28;20053;-49
2022/12/02 06:45:06;;;;;;;28.42;17.48;;;;;;;3.78;76.16;95061.63;4160730;28;20053;-53
2022/12/02 06:47:33;;;;;;;26.45;15.75;;;;;;;3.60;76.37;95058.59;4152346;28;20057;-55
2022/12/02 06:49:38;;;;;;;22.98;14.10;;;;;;;3.36;77.66;95063.72;4162899;28;20470;-53
2022/12/02 06:51:40;;;;;;;27.02;14.90;;;;;;;3.18;77.85;95063.22;4148925;28;20088;-50
2022/12/02 06:53:42;;;;;;;25.05;15.43;;;;;;;3.14;78.79;95067.78;4162304;28;20049;-53
2022/12/02 06:55:43;;;;;;;21.92;12.05;;;;;;;3.18;78.74;95066.63;4162501;28;20045;-52
2022/12/02 06:57:45;;;;;;;17.08;10.75;;;;;;;3.19;77.64;95070.88;4161469;28;20056;-52
2022/12/02 06:59:48;;;;;;;17.60;10.15;;;;;;;3.23;76.97;95068.91;4161812;28;20050;-55
2022/12/02 07:01:54;;;;;;;14.25;8.88;;;;;;;3.27;76.30;95063.41;4161824;28;20057;-53
2022/12/02 07:04:08;;;;;;;11.60;6.88;;;;;;;3.16;75.12;95068.53;4162649;28;20053;-52
2022/12/02 07:06:17;;;;;;;13.15;6.75;;;;;;;3.07;75.34;95071.72;4150023;28;20081;-50
2022/12/02 07:08:19;;;;;;;11.95;6.97;;;;;;;3.12;76.10;95073.97;4161929;28;20084;-54
2022/12/02 07:10:26;;;;;;;11.10;7.25;;;;;;;3.19;75.75;95070.06;4161998;28;20061;-52
2022/12/02 07:12:35;;;;;;;11.23;7.07;;;;;;;3.27;75.75;95070.38;4173533;28;20065;-53
2022/12/02 07:14:47;;;;;;;12.43;7.47;;;;;;;3.40;75.28;95068.59;4161470;28;20041;-50
2022/12/02 07:16:50;;;;;;;11.10;7.43;;;;;;;3.33;73.98;95077.69;4173687;28;20055;-52
2022/12/02 07:18:53;;;;;;;16.20;7.53;;;;;;;3.33;74.66;95084.63;4162188;28;20152;-52
2022/12/02 07:20:55;;;;;;;11.32;7.45;;;;;;;3.31;74.57;95081.31;4171849;28;20046;-53
2022/12/02 07:23:05;;;;;;;11.85;7.30;;;;;;;3.43;75.16;95073.53;4161058;28;20041;-53
2022/12/02 07:25:06;;;;;;;12.52;7.53;;;;;;;3.52;74.00;95076.44;4171692;28;20060;-52
2022/12/02 07:27:19;;;;;;;11.20;7.43;;;;;;;3.31;74.24;95074.38;4161874;28;20060;-57
2022/12/02 07:29:28;;;;;;;12.25;7.80;;;;;;;3.38;75.10;95074.81;4159101;28;20147;-52
2022/12/02 07:31:31;;;;;;;10.70;7.10;;;;;;;3.47;74.89;95074.16;4158466;28;20128;-54
2022/12/02 07:33:32;;;;;;;11.10;7.72;;;;;;;3.63;74.43;95079.09;4148136;28;20542;-53
2022/12/02 07:35:34;;;;;;;12.13;7.45;;;;;;;3.54;73.96;95075.38;4160968;28;20048;-52
2022/12/02 07:37:36;;;;;;;12.23;7.18;;;;;;;3.30;74.53;95080.50;4159483;28;20072;-52
2022/12/02 07:39:37;;;;;;;11.55;7.22;;;;;;;3.25;75.40;95090.34;4157896;28;20057;-52
2022/12/02 07:41:39;;;;;;;12.73;7.63;;;;;;;3.31;75.08;95102.03;4160975;28;20057;-54
2022/12/02 07:43:41;;;;;;;12.23;7.95;;;;;;;3.22;75.38;95093.97;4144662;28;20046;-49
2022/12/02 07:45:42;;;;;;;13.65;8.35;;;;;;;3.31;75.59;95083.91;4145104;28;20049;-54
2022/12/02 07:47:44;;;;;;;11.88;8.65;;;;;;;3.41;75.57;95087.53;4160557;28;20578;-52
2022/12/02 07:49:46;;;;;;;14.30;8.98;;;;;;;3.23;75.19;95095.63;4161190;28;20049;-53
2022/12/02 07:51:48;;;;;;;14.43;9.52;;;;;;;3.15;75.60;95103.09;4157332;28;20050;-52
2022/12/02 07:53:50;;;;;;;13.82;9.50;;;;;;;3.27;76.19;95101.44;4152853;28;20127;-52
2022/12/02 07:55:51;;;;;;;16.83;10.55;;;;;;;3.33;75.60;95095.00;4161587;28;20061;-54
2022/12/02 07:57:53;;;;;;;15.40;10.25;;;;;;;3.27;76.09;95099.66;4158631;28;20053;-50
2022/12/02 07:59:55;;;;;;;15.07;10.82;;;;;;;3.44;76.17;95098.53;4164289;28;20053;-52
2022/12/02 08:01:56;;;;;;;21.95;12.02;;;;;;;3.59;75.08;95099.22;4145122;28;20049;-54
2022/12/02 08:03:58;;;;;;;17.65;11.10;;;;;;;3.76;75.21;95099.78;4145458;28;20046;-52
2022/12/02 08:06:00;;;;;;;18.02;11.43;;;;;;;3.87;74.06;95105.03;4145462;28;20376;-53
2022/12/02 08:08:02;;;;;;;19.90;11.40;;;;;;;3.93;74.17;95102.00;4145592;28;20054;-52
2022/12/02 08:10:05;;;;;;;19.23;13.35;;;;;;;3.86;73.71;95106.81;4145686;28;20120;-56
2022/12/02 08:12:07;;;;;;;21.95;14.75;;;;;;;3.50;74.48;95110.19;4158608;28;20387;-52
2022/12/02 08:14:08;;;;;;;23.75;14.63;;;;;;;3.61;75.34;95102.50;4144739;28;20062;-53
2022/12/02 08:16:10;;;;;;;29.20;17.67;;;;;;;3.35;75.60;95101.72;4151602;28;20140;-52
2022/12/02 08:18:12;;;;;;;22.63;17.02;;;;;;;3.43;76.19;95107.22;4151555;28;20118;-53
2022/12/02 08:20:14;;;;;;;29.20;19.13;;;;;;;3.48;75.94;95106.88;4146083;28;20061;-53
2022/12/02 08:22:15;;;;;;;36.38;21.60;;;;;;;3.48;76.37;95112.06;4144271;28;20056;-50
2022/12/02 08:24:17;;;;;;;40.70;22.73;;;;;;;3.39;76.13;95110.13;4145731;28;20045;-54
2022/12/02 08:26:19;;;;;;;31.38;19.10;;;;;;;3.52;76.42;95105.75;4145446;28;20046;-53
2022/12/02 08:28:20;;;;;;;30.95;18.52;;;;;;;3.57;76.14;95111.44;4145055;28;20093;-55
2022/12/02 08:30:22;;;;;;;34.50;19.45;;;;;;;3.47;76.05;95110.44;4144893;28;20064;-55
2022/12/02 08:32:24;;;;;;;30.08;18.90;;;;;;;3.55;76.23;95113.31;4152387;28;20061;-51
2022/12/02 08:34:25;;;;;;;33.75;20.00;;;;;;;3.64;76.41;95112.69;4158827;28;20236;-51
2022/12/02 08:36:27;;;;;;;35.45;22.30;;;;;;;3.70;75.66;95119.19;4160375;28;20053;-48
2022/12/02 08:38:29;;;;;;;33.40;21.05;;;;;;;3.76;75.73;95115.34;4159497;28;20064;-50
2022/12/02 08:40:30;;;;;;;35.65;21.52;;;;;;;3.84;75.33;95118.22;4156327;28;20046;-53
2022/12/02 08:42:32;;;;;;;38.17;21.85;;;;;;;3.85;74.71;95109.50;4152322;28;20053;-53
2022/12/02 08:44:34;;;;;;;32.53;21.98;;;;;;;3.67;74.91;95112.44;4160395;28;20049;-51
2022/12/02 08:46:35;;;;;;;30.45;19.88;;;;;;;3.75;75.98;95118.88;4159671;28;20057;-51
2022/12/02 08:48:37;;;;;;;34.53;20.95;;;;;;;3.78;75.37;95121.25;4160609;28;20267;-50
2022/12/02 08:50:39;;;;;;;34.28;21.48;;;;;;;3.67;75.50;95117.63;4160983;28;20085;-52
2022/12/02 08:52:41;;;;;;;32.70;19.65;;;;;;;3.81;76.04;95123.63;4172346;28;20056;-47
2022/12/02 08:54:44;;;;;;;35.10;19.70;;;;;;;3.94;76.20;95129.59;4161169;28;20080;-53
2022/12/02 08:56:46;;;;;;;29.95;19.77;;;;;;;4.12;75.58;95122.28;4161066;28;20052;-50
2022/12/02 08:58:49;;;;;;;32.35;20.13;;;;;;;4.25;74.71;95119.63;4160109;28;20103;-54
2022/12/02 09:00:50;;;;;;;30.38;19.25;;;;;;;4.39;74.17;95127.25;4160614;28;20053;-52
2022/12/02 09:02:52;;;;;;;35.83;19.27;;;;;;;4.47;73.45;95121.50;4159749;28;20139;-50
2022/12/02 09:04:54;;;;;;;26.85;18.00;;;;;;;4.59;73.44;95122.38;4160835;28;20084;-51
2022/12/02 09:06:56;;;;;;;31.63;19.38;;;;;;;4.65;73.53;95127.13;4170185;28;20106;-55
2022/12/02 09:08:57;;;;;;;29.60;18.92;;;;;;;4.65;73.09;95125.38;4162392;28;20053;-51
2022/12/02 09:10:59;;;;;;;30.77;18.95;;;;;;;4.65;73.61;95121.94;4147859;28;20458;-53
2022/12/02 09:13:01;;;;;;;31.65;19.40;;;;;;;4.72;73.56;95123.97;4159255;28;20053;-52
2022/12/02 09:15:03;;;;;;;34.40;20.08;;;;;;;4.80;72.54;95125.19;4159776;28;20084;-54
2022/12/02 09:17:05;;;;;;;30.10;18.75;;;;;;;4.85;72.22;95120.47;4159111;28;20052;-49
2022/12/02 09:19:07;;;;;;;27.55;18.75;;;;;;;4.93;72.68;95115.53;4164241;28;20045;-54
2022/12/02 09:21:08;;;;;;;32.20;18.23;;;;;;;4.93;72.06;95112.94;4169609;28;20089;-52
2022/12/02 09:23:10;;;;;;;29.60;19.15;;;;;;;4.93;72.38;95118.97;4160185;28;20156;-52
2022/12/02 09:25:13;;;;;;;31.85;18.88;;;;;;;5.03;72.43;95119.09;4160132;28;20474;-53
2022/12/02 09:27:14;;;;;;;31.25;19.42;;;;;;;5.12;71.33;95115.00;4159020;28;20041;-55
2022/12/02 09:29:16;;;;;;;36.05;19.63;;;;;;;5.14;71.44;95113.06;4159272;28;20841;-54
2022/12/02 09:31:18;;;;;;;30.27;19.98;;;;;;;5.16;71.32;95116.38;4159762;28;20134;-52
2022/12/02 09:33:20;;;;;;;31.70;18.67;;;;;;;5.13;71.46;95111.44;4146690;28;20052;-51
2022/12/02 09:35:22;;;;;;;32.60;18.77;;;;;;;5.21;71.80;95108.28;4161290;28;20099;-52
2022/12/02 09:37:23;;;;;;;33.20;19.63;;;;;;;5.25;71.69;95113.13;4159995;28;20049;-50
2022/12/02 09:39:25;;;;;;;32.22;19.38;;;;;;;5.30;70.91;95105.78;4151278;28;20045;-51